createdAt,value
2016-06-20T00:01:43.902Z,0
2016-06-20T00:04:57.412Z,0
2016-06-20T00:08:10.989Z,0
2016-06-20T00:11:30.250Z,0
2016-06-20T00:14:32.744Z,0
2016-06-20T00:17:45.879Z,0
2016-06-20T00:20:59.359Z,0
2016-06-20T00:24:12.654Z,0
2016-06-20T00:27:32.009Z,0
2016-06-20T00:30:34.549Z,0
2016-06-20T00:33:47.935Z,0
2016-06-20T00:37:01.368Z,0
2016-06-20T00:40:14.709Z,0
2016-06-20T00:43:33.486Z,0
2016-06-20T00:46:35.965Z,0
2016-06-20T00:49:49.679Z,0
2016-06-20T00:53:02.516Z,0
2016-06-20T00:56:15.827Z,0
2016-06-20T00:59:35.103Z,0
2016-06-20T01:02:37.598Z,0
2016-06-20T01:05:50.734Z,0
2016-06-20T01:09:04.119Z,0
2016-06-20T01:12:17.601Z,0
2016-06-20T01:15:30.909Z,0
2016-06-20T01:18:44.481Z,0
2016-06-20T01:21:56.882Z,0
2016-06-20T01:25:10.112Z,0
2016-06-20T01:28:29.611Z,0
2016-06-20T01:31:33.996Z,0
2016-06-20T01:34:44.927Z,0
2016-06-20T01:37:57.970Z,0
2016-06-20T01:41:11.245Z,0
2016-06-20T01:44:30.634Z,0
2016-06-20T01:47:33.238Z,0
2016-06-20T01:50:48.342Z,0
2016-06-20T01:53:59.118Z,1
2016-06-20T01:57:12.191Z,1
2016-06-20T02:00:31.439Z,2
2016-06-20T02:03:33.824Z,2
2016-06-20T02:06:47.148Z,4
2016-06-20T02:10:00.517Z,4
2016-06-20T02:13:13.575Z,7
2016-06-20T02:16:32.744Z,9
2016-06-20T02:19:34.911Z,12
2016-06-20T02:22:47.906Z,18
2016-06-20T02:26:00.963Z,25
2016-06-20T02:29:14.005Z,34
2016-06-20T02:32:32.800Z,46
2016-06-20T02:35:34.842Z,60
2016-06-20T02:38:47.961Z,78
2016-06-20T02:42:01.113Z,98
2016-06-20T02:45:14.216Z,122
2016-06-20T02:48:33.402Z,148
2016-06-20T02:51:35.522Z,177
2016-06-20T02:54:48.578Z,211
2016-06-20T02:58:01.556Z,247
2016-06-20T03:01:14.778Z,287
2016-06-20T03:04:34.121Z,329
2016-06-20T03:07:36.340Z,370
2016-06-20T03:10:49.369Z,421
2016-06-20T03:14:02.428Z,468
2016-06-20T03:17:15.549Z,518
2016-06-20T03:20:34.658Z,575
2016-06-20T03:23:36.543Z,628
2016-06-20T03:26:49.601Z,681
2016-06-20T03:30:02.455Z,733
2016-06-20T03:33:15.434Z,789
2016-06-20T03:36:34.323Z,841
2016-06-20T03:39:36.459Z,895
2016-06-20T03:42:49.078Z,952
2016-06-20T03:46:01.855Z,1010
2016-06-20T03:49:14.817Z,1069
2016-06-20T03:52:33.878Z,1122
2016-06-20T03:55:35.951Z,1174
2016-06-20T03:58:48.680Z,1228
2016-06-20T04:02:01.768Z,1289
2016-06-20T04:05:14.732Z,1347
2016-06-20T04:08:33.762Z,1398
2016-06-20T04:11:35.912Z,1439
2016-06-20T04:14:48.845Z,1495
2016-06-20T04:18:01.730Z,1531
2016-06-20T04:21:14.788Z,1633
2016-06-20T04:24:33.864Z,1696
2016-06-20T04:27:35.921Z,1730
2016-06-20T04:30:49.228Z,1752
2016-06-20T04:34:01.848Z,1686
2016-06-20T04:37:15.233Z,1615
2016-06-20T04:40:34.356Z,1547
2016-06-20T04:43:36.586Z,1558
2016-06-20T04:46:49.612Z,1598
2016-06-20T04:50:02.653Z,1662
2016-06-20T04:53:15.397Z,1710
2016-06-20T04:56:34.833Z,1747
2016-06-20T04:59:37.375Z,1794
2016-06-20T05:02:50.699Z,1847
2016-06-20T05:06:04.099Z,1894
2016-06-20T05:09:17.359Z,1937
2016-06-20T05:12:30.811Z,1976
2016-06-20T05:15:44.399Z,2039
2016-06-20T05:18:57.863Z,2109
2016-06-20T05:22:11.420Z,2173
2016-06-20T05:25:31.309Z,2227
2016-06-20T05:28:34.210Z,2274
2016-06-20T05:31:48.096Z,2336
2016-06-20T05:35:02.012Z,2400
2016-06-20T05:38:15.648Z,2477
2016-06-20T05:41:35.489Z,2528
2016-06-20T05:44:38.515Z,2615
2016-06-20T05:47:52.276Z,2743
2016-06-20T05:51:06.317Z,2883
2016-06-20T05:54:20.422Z,3112
2016-06-20T06:00:43.789Z,3610
2016-06-20T06:03:57.753Z,3900
2016-06-20T06:07:11.873Z,9666
2016-06-20T06:10:32.183Z,537
2016-06-20T06:13:35.663Z,4458
2016-06-20T06:16:49.892Z,424
2016-06-20T06:20:03.949Z,384
2016-06-20T06:23:18.022Z,384
2016-06-20T06:26:32.426Z,384
2016-06-20T06:29:46.655Z,384
2016-06-20T06:33:00.838Z,384
2016-06-20T06:36:15.801Z,384
2016-06-20T06:39:30.909Z,384
2016-06-20T06:42:46.013Z,384
2016-06-20T06:46:00.961Z,384
2016-06-20T06:49:15.940Z,384
2016-06-20T06:52:31.063Z,384
2016-06-20T06:55:46.073Z,384
2016-06-20T06:59:01.147Z,384
2016-06-20T07:02:16.017Z,384
2016-06-20T07:05:36.827Z,384
2016-06-20T07:08:41.150Z,3276
2016-06-20T07:11:57.082Z,384
2016-06-20T07:15:11.030Z,384
2016-06-20T07:18:31.856Z,384
2016-06-20T07:21:36.319Z,384
2016-06-20T07:24:51.064Z,384
2016-06-20T07:28:05.950Z,384
2016-06-20T07:31:21.036Z,384
2016-06-20T07:34:36.075Z,384
2016-06-20T07:37:51.280Z,384
2016-06-20T07:41:07.593Z,384
2016-06-20T07:44:27.731Z,384
2016-06-20T07:47:32.460Z,384
2016-06-20T07:50:48.039Z,384
2016-06-20T07:54:03.392Z,384
2016-06-20T07:57:18.543Z,384
2016-06-20T08:00:33.882Z,384
2016-06-20T08:03:49.192Z,384
2016-06-20T08:07:04.281Z,384
2016-06-20T08:10:19.604Z,384
2016-06-20T08:13:34.692Z,384
2016-06-20T08:16:50.004Z,384
2016-06-20T08:20:05.233Z,384
2016-06-20T08:23:20.149Z,384
2016-06-20T08:26:35.456Z,384
2016-06-20T08:29:50.610Z,384
2016-06-20T08:33:05.792Z,384
2016-06-20T08:36:20.741Z,384
2016-06-20T08:39:35.813Z,384
2016-06-20T08:42:51.077Z,384
2016-06-20T08:46:06.573Z,384
2016-06-20T08:49:27.583Z,384
2016-06-20T08:52:32.406Z,384
2016-06-20T08:55:47.451Z,384
2016-06-20T08:59:02.399Z,384
2016-06-20T09:02:17.596Z,384
2016-06-20T09:05:32.686Z,384
2016-06-20T09:08:48.058Z,384
2016-06-20T09:12:03.241Z,384
2016-06-20T09:15:18.376Z,384
2016-06-20T09:18:33.511Z,384
2016-06-20T09:21:48.603Z,384
2016-06-20T09:25:03.738Z,384
2016-06-20T09:28:18.827Z,384
2016-06-20T09:31:33.587Z,384
2016-06-20T09:34:48.742Z,384
2016-06-20T09:38:03.767Z,384
2016-06-20T09:41:18.622Z,384
2016-06-20T09:44:33.789Z,384
2016-06-20T09:47:48.772Z,384
2016-06-20T09:51:03.187Z,9095
2016-06-20T09:54:17.151Z,384
2016-06-20T09:57:31.958Z,384
2016-06-20T10:00:47.035Z,384
2016-06-20T10:04:01.920Z,592
2016-06-20T10:07:16.712Z,579
2016-06-20T10:10:31.395Z,6712
2016-06-20T10:13:45.908Z,6624
2016-06-20T10:17:00.060Z,5836
2016-06-20T10:20:14.288Z,6228
2016-06-20T10:23:34.784Z,5842
2016-06-20T10:26:38.919Z,7463
2016-06-20T10:29:53.636Z,6136
2016-06-20T10:33:08.396Z,6799
2016-06-20T10:36:29.438Z,5214
2016-06-20T10:39:33.636Z,4993
2016-06-20T10:42:48.618Z,5302
2016-06-20T10:46:03.597Z,5125
2016-06-20T10:49:18.483Z,4846
2016-06-20T10:52:33.337Z,5032
2016-06-20T10:55:48.050Z,5373
2016-06-20T10:59:02.595Z,4772
2016-06-20T11:02:16.934Z,4391
2016-06-20T11:05:37.007Z,4299
2016-06-20T11:08:40.267Z,4258
2016-06-20T11:11:54.171Z,4346
2016-06-20T11:15:08.228Z,4392
2016-06-20T11:18:28.630Z,4421
2016-06-20T11:21:32.202Z,4459
2016-06-20T11:24:46.479Z,4337
2016-06-20T11:28:00.726Z,5155
2016-06-20T11:31:14.425Z,4949
2016-06-20T11:34:34.654Z,4789
2016-06-20T11:37:38.118Z,4374
2016-06-20T11:40:52.300Z,4357
2016-06-20T11:44:06.173Z,4713
2016-06-20T11:47:20.308Z,5492
2016-06-20T11:50:34.710Z,4820
2016-06-20T11:53:48.875Z,6118
2016-06-20T11:57:03.124Z,6509
2016-06-20T12:11:24.717Z,3610
2016-06-20T12:11:25.138Z,4856
2016-06-20T12:13:14.396Z,4390
2016-06-20T12:16:34.579Z,3188
2016-06-20T12:19:37.981Z,4420
2016-06-20T12:22:51.961Z,3209
2016-06-20T12:26:06.021Z,3075
2016-06-20T12:29:20.141Z,3268
2016-06-20T12:32:34.135Z,3992
2016-06-20T12:35:48.209Z,4641
2016-06-20T12:39:02.348Z,5214
2016-06-20T12:42:16.482Z,3750
2016-06-20T12:45:36.790Z,3579
2016-06-20T12:48:40.051Z,4345
2016-06-20T12:51:53.998Z,4828
2016-06-20T12:55:08.075Z,4343
2016-06-20T12:58:28.257Z,4024
2016-06-20T13:01:31.689Z,4612
2016-06-20T13:04:45.496Z,5149
2016-06-20T13:07:59.616Z,4743
2016-06-20T13:11:13.911Z,4583
2016-06-20T13:14:33.891Z,2991
2016-06-20T13:17:37.244Z,2856
2016-06-20T13:20:51.379Z,2992
2016-06-20T13:24:05.610Z,2696
2016-06-20T13:27:19.779Z,2909
2016-06-20T13:30:33.900Z,3081
2016-06-20T13:33:48.035Z,3091
2016-06-20T13:37:02.217Z,4156
2016-06-20T13:40:16.528Z,3651
2016-06-20T13:43:34.695Z,3826
2016-06-20T13:46:38.080Z,4703
2016-06-20T13:49:52.340Z,4607
2016-06-20T13:53:03.148Z,3994
2016-06-20T13:56:17.504Z,4151
2016-06-20T13:59:31.781Z,4681
2016-06-20T14:02:46.229Z,3969
2016-06-20T14:06:00.021Z,4971
2016-06-20T14:09:11.531Z,4749
2016-06-20T14:12:31.779Z,3176
2016-06-20T14:15:35.103Z,4635
2016-06-20T14:18:49.191Z,5670
2016-06-20T14:22:03.420Z,4589
2016-06-20T14:25:17.712Z,4986
2016-06-20T14:27:11.653Z,4567
2016-06-20T14:30:15.152Z,5013
2016-06-20T14:33:29.482Z,5099
2016-06-20T14:36:43.736Z,5426
2016-06-20T14:40:03.744Z,4731
2016-06-20T14:43:07.186Z,5445
2016-06-20T14:46:21.339Z,5136
2016-06-20T14:49:35.620Z,3870
2016-06-20T14:52:49.955Z,3212
2016-06-20T14:56:10.193Z,2919
2016-06-20T14:59:13.687Z,4221
2016-06-20T15:02:28.049Z,4288
2016-06-20T15:05:42.232Z,2529
2016-06-20T15:09:02.336Z,2678
2016-06-20T15:12:11.745Z,3974
2016-06-20T15:15:15.097Z,2638
2016-06-20T15:18:29.277Z,2224
2016-06-20T15:21:43.262Z,2142
2016-06-20T15:25:03.483Z,2701
2016-06-20T15:28:06.942Z,3224
2016-06-20T15:31:21.098Z,3362
2016-06-20T15:34:35.054Z,2578
2016-06-20T15:37:49.250Z,2670
2016-06-20T15:41:09.698Z,2490
2016-06-20T15:44:13.446Z,2241
2016-06-20T15:47:27.620Z,2218
2016-06-20T15:50:40.262Z,2678
2016-06-20T15:53:54.443Z,2655
2016-06-20T15:57:08.591Z,3048
2016-06-20T16:00:23.867Z,2323
2016-06-20T16:03:36.910Z,2607
2016-06-20T16:06:50.918Z,2547
2016-06-20T16:10:10.858Z,1971
2016-06-20T16:13:14.335Z,2314
2016-06-20T16:16:28.522Z,2207
2016-06-20T16:19:42.541Z,1811
2016-06-20T16:23:02.435Z,1649
2016-06-20T16:26:11.939Z,1744
2016-06-20T16:29:15.374Z,1901
2016-06-20T16:32:26.802Z,2273
2016-06-20T16:35:40.353Z,2507
2016-06-20T16:38:54.487Z,2512
2016-06-20T16:42:08.615Z,2846
2016-06-20T16:45:21.405Z,2639
2016-06-20T16:48:35.692Z,2392
2016-06-20T16:51:49.921Z,2423
2016-06-20T16:55:10.106Z,2354
2016-06-20T16:58:13.606Z,2093
2016-06-20T17:01:27.886Z,2104
2016-06-20T17:04:41.888Z,2099
2016-06-20T17:07:56.139Z,1771
2016-06-20T17:11:10.465Z,1664
2016-06-20T17:14:24.679Z,1731
2016-06-20T17:17:38.602Z,1709
2016-06-20T17:20:50.821Z,1720
2016-06-20T17:24:10.979Z,1651
2016-06-20T17:27:14.462Z,1613
2016-06-20T17:30:28.042Z,1676
2016-06-20T17:33:42.337Z,1715
2016-06-20T17:36:54.562Z,1782
2016-06-20T17:40:08.487Z,1838
2016-06-20T17:43:20.841Z,1814
2016-06-20T17:46:35.101Z,1810
2016-06-20T17:49:49.167Z,1766
2016-06-20T17:53:09.275Z,1602
2016-06-20T17:56:12.721Z,1346
2016-06-20T17:59:27.067Z,1266
2016-06-20T18:02:41.180Z,1108
2016-06-20T18:05:55.420Z,1016
2016-06-20T18:09:09.350Z,965
2016-06-20T18:12:23.419Z,915
2016-06-20T18:15:37.556Z,898
2016-06-20T18:18:51.668Z,936
2016-06-20T18:22:11.845Z,970
2016-06-20T18:25:15.064Z,889
2016-06-20T18:28:29.150Z,791
2016-06-20T18:31:43.173Z,733
2016-06-20T18:35:03.230Z,740
2016-06-20T18:38:06.643Z,772
2016-06-20T18:41:20.482Z,762
2016-06-20T18:44:34.207Z,662
2016-06-20T18:47:46.791Z,605
2016-06-20T18:51:06.347Z,544
2016-06-20T18:54:09.509Z,479
2016-06-20T18:57:21.397Z,431
2016-06-20T19:00:33.265Z,400
2016-06-20T19:03:47.393Z,378
2016-06-20T19:07:07.325Z,362
2016-06-20T19:10:10.597Z,324
2016-06-20T19:13:24.603Z,272
2016-06-20T19:16:38.720Z,219
2016-06-20T19:41:54.780Z,47
2016-06-20T19:45:04.870Z,36
2016-06-20T19:48:24.640Z,26
2016-06-20T19:51:27.861Z,20
2016-06-20T19:54:41.927Z,13
2016-06-20T19:57:55.068Z,9
2016-06-20T20:01:08.961Z,7
2016-06-20T20:04:28.981Z,5
2016-06-20T20:07:32.244Z,3
2016-06-20T20:10:46.204Z,2
2016-06-20T20:13:59.786Z,1
2016-06-20T20:17:13.531Z,2
2016-06-20T20:20:27.394Z,1
2016-06-20T20:23:41.441Z,0
2016-06-20T20:26:55.091Z,0
2016-06-20T20:30:09.074Z,0
2016-06-20T20:33:29.048Z,0
2016-06-20T20:36:31.996Z,0
2016-06-20T20:39:45.607Z,0
2016-06-20T20:42:59.422Z,0
2016-06-20T20:46:13.088Z,0
2016-06-20T20:49:29.817Z,0
2016-06-20T20:52:32.894Z,0
2016-06-20T20:55:46.837Z,0
2016-06-20T20:59:00.733Z,0
2016-06-20T21:02:14.631Z,0
2016-06-20T21:05:28.247Z,0
2016-06-20T21:08:41.943Z,0
2016-06-20T21:11:55.969Z,0
2016-06-20T21:15:09.609Z,0
2016-06-20T21:18:29.387Z,0
2016-06-20T21:21:32.488Z,0
2016-06-20T21:24:46.163Z,0
2016-06-20T21:28:00.058Z,0
2016-06-20T21:31:13.830Z,0
2016-06-20T21:34:31.002Z,0
2016-06-20T21:37:34.106Z,0
2016-06-20T21:40:47.583Z,0
2016-06-20T21:44:01.496Z,0
2016-06-20T21:47:14.735Z,0
2016-06-20T21:50:25.143Z,0
2016-06-20T21:53:38.942Z,0
2016-06-20T21:56:50.699Z,0
2016-06-20T22:00:04.408Z,0
2016-06-20T22:03:23.853Z,0
2016-06-20T22:06:26.785Z,0
2016-06-20T22:09:40.371Z,0
2016-06-20T22:12:53.898Z,0
2016-06-20T22:16:07.433Z,0
2016-06-20T22:19:25.825Z,0
2016-06-20T22:22:28.803Z,0
2016-06-20T22:25:42.598Z,0
2016-06-20T22:28:56.434Z,0
2016-06-20T22:32:10.414Z,0
2016-06-20T22:35:30.040Z,0
2016-06-20T22:38:32.962Z,0
2016-06-20T22:41:46.746Z,0
2016-06-20T22:44:58.715Z,0
2016-06-20T22:48:12.630Z,0
2016-06-20T22:51:26.344Z,0
2016-06-20T22:54:40.010Z,0
2016-06-20T22:57:53.595Z,0
2016-06-20T23:01:07.010Z,0
2016-06-20T23:04:26.720Z,0
2016-06-20T23:07:29.583Z,0
2016-06-20T23:10:44.294Z,0
2016-06-20T23:13:56.999Z,0
2016-06-20T23:17:10.987Z,0
2016-06-20T23:20:28.629Z,0
2016-06-20T23:23:31.376Z,0
2016-06-20T23:26:44.993Z,0
2016-06-20T23:29:59.583Z,0
2016-06-20T23:33:12.297Z,0
2016-06-20T23:36:25.927Z,0
2016-06-20T23:39:40.592Z,0
2016-06-20T23:42:53.288Z,0
2016-06-20T23:46:04.513Z,0
2016-06-20T23:49:24.154Z,0
2016-06-20T23:52:26.959Z,0
2016-06-20T23:55:40.270Z,0
2016-06-20T23:58:53.690Z,0
